sensor_id;sensor_type;location;lat;lon;timestamp;temperature;humidity
12726;DHT22;6427;49.754;6.106;2023-04-15T00:01:23;8.10;99.90
12726;DHT22;6427;49.754;6.106;2023-04-15T00:03:51;8.30;99.90
12726;DHT22;6427;49.754;6.106;2023-04-15T00:06:22;8.30;99.90
12726;DHT22;6427;49.754;6.106;2023-04-15T00:08:49;8.30;99.90
12726;DHT22;6427;49.754;6.106;2023-04-15T00:11:17;8.30;99.90
12726;DHT22;6427;49.754;6.106;2023-04-15T00:13:44;8.30;99.90
12726;DHT22;6427;49.754;6.106;2023-04-15T00:16:12;8.20;99.90
12726;DHT22;6427;49.754;6.106;2023-04-15T00:18:39;8.20;99.90
12726;DHT22;6427;49.754;6.106;2023-04-15T00:21:07;8.20;99.90
12726;DHT22;6427;49.754;6.106;2023-04-15T00:23:34;8.40;99.90
12726;DHT22;6427;49.754;6.106;2023-04-15T00:26:02;8.40;99.90
12726;DHT22;6427;49.754;6.106;2023-04-15T00:28:29;8.40;99.90
12726;DHT22;6427;49.754;6.106;2023-04-15T00:30:57;8.40;99.90
12726;DHT22;6427;49.754;6.106;2023-04-15T00:33:25;8.50;99.90
12726;DHT22;6427;49.754;6.106;2023-04-15T00:35:52;8.50;99.90
12726;DHT22;6427;49.754;6.106;2023-04-15T00:38:20;8.40;99.90
12726;DHT22;6427;49.754;6.106;2023-04-15T00:40:48;8.40;99.90
12726;DHT22;6427;49.754;6.106;2023-04-15T00:43:16;8.30;99.90
12726;DHT22;6427;49.754;6.106;2023-04-15T00:45:44;8.20;99.90
12726;DHT22;6427;49.754;6.106;2023-04-15T00:48:12;8.20;99.90
12726;DHT22;6427;49.754;6.106;2023-04-15T00:50:39;8.20;99.90
12726;DHT22;6427;49.754;6.106;2023-04-15T00:53:07;8.20;99.90
12726;DHT22;6427;49.754;6.106;2023-04-15T00:55:35;8.10;99.90
12726;DHT22;6427;49.754;6.106;2023-04-15T00:58:02;8.10;99.90
12726;DHT22;6427;49.754;6.106;2023-04-15T01:00:30;8.10;99.90
12726;DHT22;6427;49.754;6.106;2023-04-15T01:02:58;8.10;99.90
12726;DHT22;6427;49.754;6.106;2023-04-15T01:05:26;8.10;99.90
12726;DHT22;6427;49.754;6.106;2023-04-15T01:07:53;8.10;99.90
12726;DHT22;6427;49.754;6.106;2023-04-15T01:10:21;8.10;99.90
12726;DHT22;6427;49.754;6.106;2023-04-15T01:12:48;8.10;99.90
12726;DHT22;6427;49.754;6.106;2023-04-15T01:15:16;8.00;99.90
12726;DHT22;6427;49.754;6.106;2023-04-15T01:17:44;8.30;99.90
12726;DHT22;6427;49.754;6.106;2023-04-15T01:20:12;8.30;99.90
12726;DHT22;6427;49.754;6.106;2023-04-15T01:22:39;8.30;99.90
12726;DHT22;6427;49.754;6.106;2023-04-15T01:25:15;8.20;99.90
12726;DHT22;6427;49.754;6.106;2023-04-15T01:27:40;8.20;99.90
12726;DHT22;6427;49.754;6.106;2023-04-15T01:30:12;8.20;99.90
12726;DHT22;6427;49.754;6.106;2023-04-15T01:32:40;8.20;99.90
12726;DHT22;6427;49.754;6.106;2023-04-15T01:35:08;8.20;99.90
12726;DHT22;6427;49.754;6.106;2023-04-15T01:37:35;8.20;99.90
12726;DHT22;6427;49.754;6.106;2023-04-15T01:40:03;8.20;99.90
12726;DHT22;6427;49.754;6.106;2023-04-15T01:42:30;8.40;99.90
12726;DHT22;6427;49.754;6.106;2023-04-15T01:44:58;8.40;99.90
12726;DHT22;6427;49.754;6.106;2023-04-15T01:47:25;8.40;99.90
12726;DHT22;6427;49.754;6.106;2023-04-15T01:49:53;8.40;99.90
12726;DHT22;6427;49.754;6.106;2023-04-15T01:52:21;8.30;99.90
12726;DHT22;6427;49.754;6.106;2023-04-15T01:54:49;8.30;99.90
12726;DHT22;6427;49.754;6.106;2023-04-15T01:57:16;8.30;99.90
12726;DHT22;6427;49.754;6.106;2023-04-15T01:59:44;8.20;99.90
12726;DHT22;6427;49.754;6.106;2023-04-15T02:02:12;8.20;99.90
12726;DHT22;6427;49.754;6.106;2023-04-15T02:04:40;8.20;99.90
12726;DHT22;6427;49.754;6.106;2023-04-15T02:07:08;8.20;99.90
12726;DHT22;6427;49.754;6.106;2023-04-15T02:09:36;8.20;99.90
12726;DHT22;6427;49.754;6.106;2023-04-15T02:12:04;8.20;99.90
12726;DHT22;6427;49.754;6.106;2023-04-15T02:14:31;8.20;99.90
12726;DHT22;6427;49.754;6.106;2023-04-15T02:17:00;8.10;99.90
12726;DHT22;6427;49.754;6.106;2023-04-15T02:19:30;8.10;99.90
12726;DHT22;6427;49.754;6.106;2023-04-15T02:21:58;8.20;99.90
12726;DHT22;6427;49.754;6.106;2023-04-15T02:24:25;8.20;99.90
12726;DHT22;6427;49.754;6.106;2023-04-15T02:26:53;8.10;99.90
12726;DHT22;6427;49.754;6.106;2023-04-15T02:29:21;8.40;99.90
12726;DHT22;6427;49.754;6.106;2023-04-15T02:31:48;8.40;99.90
12726;DHT22;6427;49.754;6.106;2023-04-15T02:34:17;8.30;99.90
12726;DHT22;6427;49.754;6.106;2023-04-15T02:36:44;8.30;99.90
12726;DHT22;6427;49.754;6.106;2023-04-15T02:39:12;8.30;99.90
12726;DHT22;6427;49.754;6.106;2023-04-15T02:41:39;8.30;99.90
12726;DHT22;6427;49.754;6.106;2023-04-15T02:44:08;8.30;99.90
12726;DHT22;6427;49.754;6.106;2023-04-15T02:46:35;8.30;99.90
12726;DHT22;6427;49.754;6.106;2023-04-15T02:49:03;8.30;99.90
12726;DHT22;6427;49.754;6.106;2023-04-15T02:51:30;8.30;99.90
12726;DHT22;6427;49.754;6.106;2023-04-15T02:53:58;8.20;99.90
12726;DHT22;6427;49.754;6.106;2023-04-15T02:56:25;8.20;99.90
12726;DHT22;6427;49.754;6.106;2023-04-15T02:58:53;8.20;99.90
12726;DHT22;6427;49.754;6.106;2023-04-15T03:01:20;8.20;99.90
12726;DHT22;6427;49.754;6.106;2023-04-15T03:03:49;8.20;99.90
12726;DHT22;6427;49.754;6.106;2023-04-15T03:06:16;8.20;99.90
12726;DHT22;6427;49.754;6.106;2023-04-15T03:08:45;8.20;99.90
12726;DHT22;6427;49.754;6.106;2023-04-15T03:11:13;8.20;99.90
12726;DHT22;6427;49.754;6.106;2023-04-15T03:13:40;8.20;99.90
12726;DHT22;6427;49.754;6.106;2023-04-15T03:16:08;8.20;99.90
12726;DHT22;6427;49.754;6.106;2023-04-15T03:18:36;8.20;99.90
12726;DHT22;6427;49.754;6.106;2023-04-15T03:21:03;8.20;99.90
12726;DHT22;6427;49.754;6.106;2023-04-15T03:23:31;8.20;99.90
12726;DHT22;6427;49.754;6.106;2023-04-15T03:26:03;8.20;99.90
12726;DHT22;6427;49.754;6.106;2023-04-15T03:28:30;8.20;99.90
12726;DHT22;6427;49.754;6.106;2023-04-15T03:30:57;8.20;99.90
12726;DHT22;6427;49.754;6.106;2023-04-15T03:33:25;8.20;99.90
12726;DHT22;6427;49.754;6.106;2023-04-15T03:35:53;8.10;99.90
12726;DHT22;6427;49.754;6.106;2023-04-15T03:38:21;8.10;99.90
12726;DHT22;6427;49.754;6.106;2023-04-15T03:40:49;8.10;99.90
12726;DHT22;6427;49.754;6.106;2023-04-15T03:43:16;8.10;99.90
12726;DHT22;6427;49.754;6.106;2023-04-15T03:45:45;8.10;99.90
12726;DHT22;6427;49.754;6.106;2023-04-15T03:48:12;8.10;99.90
12726;DHT22;6427;49.754;6.106;2023-04-15T03:50:40;8.10;99.90
12726;DHT22;6427;49.754;6.106;2023-04-15T03:53:07;8.10;99.90
12726;DHT22;6427;49.754;6.106;2023-04-15T03:55:35;8.10;99.90
12726;DHT22;6427;49.754;6.106;2023-04-15T03:58:03;8.10;99.90
12726;DHT22;6427;49.754;6.106;2023-04-15T04:00:30;8.10;99.90
12726;DHT22;6427;49.754;6.106;2023-04-15T04:02:58;8.10;99.90
12726;DHT22;6427;49.754;6.106;2023-04-15T04:05:26;8.10;99.90
12726;DHT22;6427;49.754;6.106;2023-04-15T04:07:54;8.10;99.90
12726;DHT22;6427;49.754;6.106;2023-04-15T04:10:21;8.00;99.90
12726;DHT22;6427;49.754;6.106;2023-04-15T04:12:49;8.00;99.90
12726;DHT22;6427;49.754;6.106;2023-04-15T04:15:17;7.90;99.90
12726;DHT22;6427;49.754;6.106;2023-04-15T04:17:45;7.90;99.90
12726;DHT22;6427;49.754;6.106;2023-04-15T04:20:12;7.90;99.90
12726;DHT22;6427;49.754;6.106;2023-04-15T04:22:40;7.80;99.90
12726;DHT22;6427;49.754;6.106;2023-04-15T04:25:08;7.80;99.90
12726;DHT22;6427;49.754;6.106;2023-04-15T04:27:36;7.80;99.90
12726;DHT22;6427;49.754;6.106;2023-04-15T04:30:03;7.80;99.90
12726;DHT22;6427;49.754;6.106;2023-04-15T04:32:31;7.70;99.90
12726;DHT22;6427;49.754;6.106;2023-04-15T04:34:58;7.70;99.90
12726;DHT22;6427;49.754;6.106;2023-04-15T04:37:26;7.80;99.90
12726;DHT22;6427;49.754;6.106;2023-04-15T04:39:53;7.80;99.90
12726;DHT22;6427;49.754;6.106;2023-04-15T04:42:21;7.80;99.90
12726;DHT22;6427;49.754;6.106;2023-04-15T04:44:49;7.80;99.90
12726;DHT22;6427;49.754;6.106;2023-04-15T04:47:16;7.80;99.90
12726;DHT22;6427;49.754;6.106;2023-04-15T04:49:44;8.00;99.90
12726;DHT22;6427;49.754;6.106;2023-04-15T04:52:11;8.30;99.90
12726;DHT22;6427;49.754;6.106;2023-04-15T04:54:39;8.30;99.90
12726;DHT22;6427;49.754;6.106;2023-04-15T04:57:08;8.40;99.90
12726;DHT22;6427;49.754;6.106;2023-04-15T04:59:35;8.30;99.90
12726;DHT22;6427;49.754;6.106;2023-04-15T05:02:03;8.30;99.90
12726;DHT22;6427;49.754;6.106;2023-04-15T05:04:31;8.20;99.90
12726;DHT22;6427;49.754;6.106;2023-04-15T05:06:59;8.10;99.90
12726;DHT22;6427;49.754;6.106;2023-04-15T05:09:26;8.10;99.90
12726;DHT22;6427;49.754;6.106;2023-04-15T05:11:54;8.10;99.90
12726;DHT22;6427;49.754;6.106;2023-04-15T05:14:22;8.30;99.90
12726;DHT22;6427;49.754;6.106;2023-04-15T05:16:49;8.50;99.90
12726;DHT22;6427;49.754;6.106;2023-04-15T05:19:17;8.40;99.90
12726;DHT22;6427;49.754;6.106;2023-04-15T05:21:45;8.20;99.90
12726;DHT22;6427;49.754;6.106;2023-04-15T05:24:13;8.20;99.90
12726;DHT22;6427;49.754;6.106;2023-04-15T05:26:40;8.10;99.90
12726;DHT22;6427;49.754;6.106;2023-04-15T05:29:08;8.30;99.90
12726;DHT22;6427;49.754;6.106;2023-04-15T05:31:35;8.30;99.90
12726;DHT22;6427;49.754;6.106;2023-04-15T05:34:03;8.20;99.90
12726;DHT22;6427;49.754;6.106;2023-04-15T05:36:30;8.40;99.90
12726;DHT22;6427;49.754;6.106;2023-04-15T05:38:58;8.40;99.90
12726;DHT22;6427;49.754;6.106;2023-04-15T05:41:25;8.40;99.90
12726;DHT22;6427;49.754;6.106;2023-04-15T05:43:54;8.30;99.90
12726;DHT22;6427;49.754;6.106;2023-04-15T05:46:21;8.30;99.90
12726;DHT22;6427;49.754;6.106;2023-04-15T05:48:49;8.30;99.90
12726;DHT22;6427;49.754;6.106;2023-04-15T05:51:17;8.30;99.90
12726;DHT22;6427;49.754;6.106;2023-04-15T05:53:45;8.30;99.90
12726;DHT22;6427;49.754;6.106;2023-04-15T05:56:12;8.30;99.90
12726;DHT22;6427;49.754;6.106;2023-04-15T05:58:40;8.40;99.90
12726;DHT22;6427;49.754;6.106;2023-04-15T06:01:08;8.40;99.90
12726;DHT22;6427;49.754;6.106;2023-04-15T06:03:36;8.40;99.90
12726;DHT22;6427;49.754;6.106;2023-04-15T06:06:03;8.60;99.90
12726;DHT22;6427;49.754;6.106;2023-04-15T06:08:31;8.70;99.90
12726;DHT22;6427;49.754;6.106;2023-04-15T06:10:59;8.60;99.90
12726;DHT22;6427;49.754;6.106;2023-04-15T06:13:27;8.60;99.90
12726;DHT22;6427;49.754;6.106;2023-04-15T06:15:54;8.70;99.90
12726;DHT22;6427;49.754;6.106;2023-04-15T06:18:22;8.70;99.90
12726;DHT22;6427;49.754;6.106;2023-04-15T06:20:51;8.80;99.90
12726;DHT22;6427;49.754;6.106;2023-04-15T06:23:18;8.80;99.90
12726;DHT22;6427;49.754;6.106;2023-04-15T06:25:46;8.80;99.90
12726;DHT22;6427;49.754;6.106;2023-04-15T06:28:13;8.90;99.90
12726;DHT22;6427;49.754;6.106;2023-04-15T06:30:41;9.10;99.90
12726;DHT22;6427;49.754;6.106;2023-04-15T06:33:08;9.40;99.90
12726;DHT22;6427;49.754;6.106;2023-04-15T06:35:36;9.40;99.90
12726;DHT22;6427;49.754;6.106;2023-04-15T06:38:04;9.40;99.90
12726;DHT22;6427;49.754;6.106;2023-04-15T06:40:32;9.30;99.90
12726;DHT22;6427;49.754;6.106;2023-04-15T06:42:59;9.40;99.90
12726;DHT22;6427;49.754;6.106;2023-04-15T06:45:27;9.40;99.90
12726;DHT22;6427;49.754;6.106;2023-04-15T06:47:54;9.40;99.90
12726;DHT22;6427;49.754;6.106;2023-04-15T06:50:23;9.40;99.90
12726;DHT22;6427;49.754;6.106;2023-04-15T06:52:51;9.40;99.90
12726;DHT22;6427;49.754;6.106;2023-04-15T06:55:18;9.40;99.90
12726;DHT22;6427;49.754;6.106;2023-04-15T06:57:46;9.50;99.90
12726;DHT22;6427;49.754;6.106;2023-04-15T07:00:14;9.50;99.90
12726;DHT22;6427;49.754;6.106;2023-04-15T07:02:41;9.70;99.90
12726;DHT22;6427;49.754;6.106;2023-04-15T07:05:10;9.90;99.90
12726;DHT22;6427;49.754;6.106;2023-04-15T07:07:38;9.90;99.90
12726;DHT22;6427;49.754;6.106;2023-04-15T07:10:06;9.90;99.90
12726;DHT22;6427;49.754;6.106;2023-04-15T07:12:34;10.00;99.90
12726;DHT22;6427;49.754;6.106;2023-04-15T07:15:02;10.00;99.90
12726;DHT22;6427;49.754;6.106;2023-04-15T07:17:29;10.10;99.90
12726;DHT22;6427;49.754;6.106;2023-04-15T07:19:57;10.40;99.90
12726;DHT22;6427;49.754;6.106;2023-04-15T07:22:25;10.50;99.90
12726;DHT22;6427;49.754;6.106;2023-04-15T07:24:54;10.50;99.90
12726;DHT22;6427;49.754;6.106;2023-04-15T07:27:21;10.50;99.90
12726;DHT22;6427;49.754;6.106;2023-04-15T07:29:49;10.60;99.90
12726;DHT22;6427;49.754;6.106;2023-04-15T07:32:16;10.60;99.90
12726;DHT22;6427;49.754;6.106;2023-04-15T07:34:44;10.70;99.90
12726;DHT22;6427;49.754;6.106;2023-04-15T07:37:11;10.70;99.90
12726;DHT22;6427;49.754;6.106;2023-04-15T07:39:39;10.80;99.90
12726;DHT22;6427;49.754;6.106;2023-04-15T07:42:07;11.00;99.80
12726;DHT22;6427;49.754;6.106;2023-04-15T07:44:35;10.90;99.80
12726;DHT22;6427;49.754;6.106;2023-04-15T07:47:02;11.00;99.70
12726;DHT22;6427;49.754;6.106;2023-04-15T07:49:30;11.20;99.70
12726;DHT22;6427;49.754;6.106;2023-04-15T07:51:57;11.50;99.50
12726;DHT22;6427;49.754;6.106;2023-04-15T07:54:26;11.70;99.00
12726;DHT22;6427;49.754;6.106;2023-04-15T07:56:53;11.60;99.00
12726;DHT22;6427;49.754;6.106;2023-04-15T07:59:21;11.70;98.70
12726;DHT22;6427;49.754;6.106;2023-04-15T08:01:49;11.80;98.50
12726;DHT22;6427;49.754;6.106;2023-04-15T08:04:17;11.70;98.40
12726;DHT22;6427;49.754;6.106;2023-04-15T08:06:44;11.80;98.30
12726;DHT22;6427;49.754;6.106;2023-04-15T08:09:12;11.90;98.00
12726;DHT22;6427;49.754;6.106;2023-04-15T08:11:40;12.00;97.50
12726;DHT22;6427;49.754;6.106;2023-04-15T08:14:08;12.00;97.20
12726;DHT22;6427;49.754;6.106;2023-04-15T08:16:35;12.00;97.00
12726;DHT22;6427;49.754;6.106;2023-04-15T08:19:03;12.10;97.00
12726;DHT22;6427;49.754;6.106;2023-04-15T08:21:31;12.10;97.00
12726;DHT22;6427;49.754;6.106;2023-04-15T08:23:59;12.20;96.60
12726;DHT22;6427;49.754;6.106;2023-04-15T08:26:27;12.20;96.50
12726;DHT22;6427;49.754;6.106;2023-04-15T08:28:55;12.50;95.70
12726;DHT22;6427;49.754;6.106;2023-04-15T08:31:25;12.60;95.50
12726;DHT22;6427;49.754;6.106;2023-04-15T08:33:50;12.60;95.10
12726;DHT22;6427;49.754;6.106;2023-04-15T08:36:18;12.70;94.50
12726;DHT22;6427;49.754;6.106;2023-04-15T08:38:45;12.80;94.70
12726;DHT22;6427;49.754;6.106;2023-04-15T08:41:22;12.90;94.10
12726;DHT22;6427;49.754;6.106;2023-04-15T08:43:53;13.00;93.30
12726;DHT22;6427;49.754;6.106;2023-04-15T08:46:20;13.10;93.10
12726;DHT22;6427;49.754;6.106;2023-04-15T08:48:47;13.20;92.90
12726;DHT22;6427;49.754;6.106;2023-04-15T08:51:16;13.50;92.20
12726;DHT22;6427;49.754;6.106;2023-04-15T08:53:43;13.60;91.10
12726;DHT22;6427;49.754;6.106;2023-04-15T08:56:11;13.60;91.10
12726;DHT22;6427;49.754;6.106;2023-04-15T08:58:38;13.70;90.40
12726;DHT22;6427;49.754;6.106;2023-04-15T09:01:06;13.80;88.90
12726;DHT22;6427;49.754;6.106;2023-04-15T09:03:34;14.00;86.80
12726;DHT22;6427;49.754;6.106;2023-04-15T09:06:03;14.00;86.70
12726;DHT22;6427;49.754;6.106;2023-04-15T09:08:29;14.10;84.80
12726;DHT22;6427;49.754;6.106;2023-04-15T09:10:57;14.20;82.00
12726;DHT22;6427;49.754;6.106;2023-04-15T09:13:24;14.30;79.70
12726;DHT22;6427;49.754;6.106;2023-04-15T09:15:52;14.30;78.30
12726;DHT22;6427;49.754;6.106;2023-04-15T09:18:31;14.40;73.70
12726;DHT22;6427;49.754;6.106;2023-04-15T09:20:54;14.40;73.70
12726;DHT22;6427;49.754;6.106;2023-04-15T09:23:22;14.60;71.70
12726;DHT22;6427;49.754;6.106;2023-04-15T09:25:50;14.70;69.90
12726;DHT22;6427;49.754;6.106;2023-04-15T09:28:22;14.60;69.80
12726;DHT22;6427;49.754;6.106;2023-04-15T09:30:45;14.70;68.30
12726;DHT22;6427;49.754;6.106;2023-04-15T09:33:13;14.70;66.80
12726;DHT22;6427;49.754;6.106;2023-04-15T09:35:40;14.70;64.40
12726;DHT22;6427;49.754;6.106;2023-04-15T09:38:08;14.70;62.80
12726;DHT22;6427;49.754;6.106;2023-04-15T09:40:37;14.70;60.90
12726;DHT22;6427;49.754;6.106;2023-04-15T09:43:04;14.70;60.90
12726;DHT22;6427;49.754;6.106;2023-04-15T09:45:32;14.80;59.80
12726;DHT22;6427;49.754;6.106;2023-04-15T09:48:15;15.00;57.90
12726;DHT22;6427;49.754;6.106;2023-04-15T09:50:42;15.00;57.90
12726;DHT22;6427;49.754;6.106;2023-04-15T09:53:10;15.10;57.70
12726;DHT22;6427;49.754;6.106;2023-04-15T09:55:42;15.20;57.60
12726;DHT22;6427;49.754;6.106;2023-04-15T09:58:08;15.40;57.00
12726;DHT22;6427;49.754;6.106;2023-04-15T10:00:36;15.50;55.50
12726;DHT22;6427;49.754;6.106;2023-04-15T10:03:04;15.60;54.30
12726;DHT22;6427;49.754;6.106;2023-04-15T10:05:31;15.70;53.60
12726;DHT22;6427;49.754;6.106;2023-04-15T10:07:59;15.90;52.90
12726;DHT22;6427;49.754;6.106;2023-04-15T10:10:27;15.90;52.90
12726;DHT22;6427;49.754;6.106;2023-04-15T10:12:54;16.00;52.90
12726;DHT22;6427;49.754;6.106;2023-04-15T10:15:22;16.20;53.50
12726;DHT22;6427;49.754;6.106;2023-04-15T10:17:50;16.20;53.50
12726;DHT22;6427;49.754;6.106;2023-04-15T10:20:18;16.30;53.50
12726;DHT22;6427;49.754;6.106;2023-04-15T10:22:46;16.30;52.80
12726;DHT22;6427;49.754;6.106;2023-04-15T10:25:20;16.40;53.00
12726;DHT22;6427;49.754;6.106;2023-04-15T10:27:48;16.40;52.70
12726;DHT22;6427;49.754;6.106;2023-04-15T10:30:25;16.50;52.70
12726;DHT22;6427;49.754;6.106;2023-04-15T10:32:48;16.60;50.70
12726;DHT22;6427;49.754;6.106;2023-04-15T10:35:33;16.50;50.60
12726;DHT22;6427;49.754;6.106;2023-04-15T10:38:13;16.50;49.60
12726;DHT22;6427;49.754;6.106;2023-04-15T10:40:30;16.40;49.30
12726;DHT22;6427;49.754;6.106;2023-04-15T10:42:59;16.40;49.30
12726;DHT22;6427;49.754;6.106;2023-04-15T10:45:44;16.50;49.40
12726;DHT22;6427;49.754;6.106;2023-04-15T10:48:14;16.70;49.50
12726;DHT22;6427;49.754;6.106;2023-04-15T10:50:49;16.80;49.70
12726;DHT22;6427;49.754;6.106;2023-04-15T10:53:10;16.80;49.70
12726;DHT22;6427;49.754;6.106;2023-04-15T10:55:40;16.90;49.90
12726;DHT22;6427;49.754;6.106;2023-04-15T10:58:11;17.10;49.10
12726;DHT22;6427;49.754;6.106;2023-04-15T11:00:40;17.00;49.70
12726;DHT22;6427;49.754;6.106;2023-04-15T11:03:10;16.80;50.20
12726;DHT22;6427;49.754;6.106;2023-04-15T11:08:09;16.50;50.30
12726;DHT22;6427;49.754;6.106;2023-04-15T11:13:15;16.50;51.00
12726;DHT22;6427;49.754;6.106;2023-04-15T11:15:45;16.50;51.00
12726;DHT22;6427;49.754;6.106;2023-04-15T11:18:16;16.50;51.00
12726;DHT22;6427;49.754;6.106;2023-04-15T11:20:44;16.60;51.00
12726;DHT22;6427;49.754;6.106;2023-04-15T11:23:16;16.70;49.50
12726;DHT22;6427;49.754;6.106;2023-04-15T11:25:50;16.80;49.50
12726;DHT22;6427;49.754;6.106;2023-04-15T11:28:23;16.90;49.90
12726;DHT22;6427;49.754;6.106;2023-04-15T11:30:57;17.00;48.80
12726;DHT22;6427;49.754;6.106;2023-04-15T11:33:27;17.00;48.80
12726;DHT22;6427;49.754;6.106;2023-04-15T11:35:55;17.10;48.40
12726;DHT22;6427;49.754;6.106;2023-04-15T11:38:27;17.30;45.60
12726;DHT22;6427;49.754;6.106;2023-04-15T11:40:56;17.30;45.60
12726;DHT22;6427;49.754;6.106;2023-04-15T11:43:25;17.30;45.90
12726;DHT22;6427;49.754;6.106;2023-04-15T11:46:01;17.30;45.70
12726;DHT22;6427;49.754;6.106;2023-04-15T11:48:33;17.20;45.60
12726;DHT22;6427;49.754;6.106;2023-04-15T11:51:00;17.30;45.60
12726;DHT22;6427;49.754;6.106;2023-04-15T11:53:44;17.50;45.10
12726;DHT22;6427;49.754;6.106;2023-04-15T11:56:23;17.40;44.30
12726;DHT22;6427;49.754;6.106;2023-04-15T11:58:54;17.30;46.00
12726;DHT22;6427;49.754;6.106;2023-04-15T12:01:22;17.30;46.00
12726;DHT22;6427;49.754;6.106;2023-04-15T12:03:47;17.30;46.50
12726;DHT22;6427;49.754;6.106;2023-04-15T12:06:23;17.30;44.70
12726;DHT22;6427;49.754;6.106;2023-04-15T12:11:30;17.30;44.80
12726;DHT22;6427;49.754;6.106;2023-04-15T12:14:01;17.20;44.80
12726;DHT22;6427;49.754;6.106;2023-04-15T12:16:28;17.20;45.50
12726;DHT22;6427;49.754;6.106;2023-04-15T12:18:57;17.40;45.60
12726;DHT22;6427;49.754;6.106;2023-04-15T12:21:26;17.40;45.50
12726;DHT22;6427;49.754;6.106;2023-04-15T12:23:57;17.40;46.40
12726;DHT22;6427;49.754;6.106;2023-04-15T12:29:09;17.40;46.10
12726;DHT22;6427;49.754;6.106;2023-04-15T12:31:46;17.30;44.00
12726;DHT22;6427;49.754;6.106;2023-04-15T12:34:06;17.30;44.80
12726;DHT22;6427;49.754;6.106;2023-04-15T12:36:37;17.30;45.20
12726;DHT22;6427;49.754;6.106;2023-04-15T12:39:08;17.30;45.10
12726;DHT22;6427;49.754;6.106;2023-04-15T12:41:36;17.30;45.60
12726;DHT22;6427;49.754;6.106;2023-04-15T12:44:04;17.40;45.90
12726;DHT22;6427;49.754;6.106;2023-04-15T12:46:36;17.40;45.80
12726;DHT22;6427;49.754;6.106;2023-04-15T12:49:10;17.50;46.30
12726;DHT22;6427;49.754;6.106;2023-04-15T12:51:39;17.40;46.20
12726;DHT22;6427;49.754;6.106;2023-04-15T12:54:09;17.40;45.70
12726;DHT22;6427;49.754;6.106;2023-04-15T12:56:41;17.40;45.00
12726;DHT22;6427;49.754;6.106;2023-04-15T12:59:09;17.40;44.00
12726;DHT22;6427;49.754;6.106;2023-04-15T13:01:34;17.30;44.00
12726;DHT22;6427;49.754;6.106;2023-04-15T13:04:03;17.40;41.70
12726;DHT22;6427;49.754;6.106;2023-04-15T13:06:37;17.40;41.60
12726;DHT22;6427;49.754;6.106;2023-04-15T13:09:08;17.60;41.00
12726;DHT22;6427;49.754;6.106;2023-04-15T13:11:38;17.80;41.80
12726;DHT22;6427;49.754;6.106;2023-04-15T13:14:10;17.80;42.10
12726;DHT22;6427;49.754;6.106;2023-04-15T13:16:43;17.70;41.90
12726;DHT22;6427;49.754;6.106;2023-04-15T13:19:12;17.70;41.90
12726;DHT22;6427;49.754;6.106;2023-04-15T13:21:41;17.90;40.70
12726;DHT22;6427;49.754;6.106;2023-04-15T13:24:13;17.80;40.60
12726;DHT22;6427;49.754;6.106;2023-04-15T13:26:42;17.80;40.80
12726;DHT22;6427;49.754;6.106;2023-04-15T13:29:11;18.10;41.60
12726;DHT22;6427;49.754;6.106;2023-04-15T13:31:41;18.00;41.60
12726;DHT22;6427;49.754;6.106;2023-04-15T13:34:09;18.20;41.10
12726;DHT22;6427;49.754;6.106;2023-04-15T13:36:39;18.40;42.00
12726;DHT22;6427;49.754;6.106;2023-04-15T13:39:15;18.30;42.20
12726;DHT22;6427;49.754;6.106;2023-04-15T13:41:44;18.20;42.20
12726;DHT22;6427;49.754;6.106;2023-04-15T13:44:16;18.20;41.80
12726;DHT22;6427;49.754;6.106;2023-04-15T13:46:43;18.20;41.80
12726;DHT22;6427;49.754;6.106;2023-04-15T13:49:13;18.10;40.70
12726;DHT22;6427;49.754;6.106;2023-04-15T13:51:45;18.00;39.70
12726;DHT22;6427;49.754;6.106;2023-04-15T13:54:12;17.90;38.50
12726;DHT22;6427;49.754;6.106;2023-04-15T13:56:46;17.90;38.50
12726;DHT22;6427;49.754;6.106;2023-04-15T13:59:15;17.80;37.50
12726;DHT22;6427;49.754;6.106;2023-04-15T14:01:53;17.80;38.40
12726;DHT22;6427;49.754;6.106;2023-04-15T14:04:29;17.80;37.80
12726;DHT22;6427;49.754;6.106;2023-04-15T14:09:27;17.60;39.50
12726;DHT22;6427;49.754;6.106;2023-04-15T14:12:01;17.70;40.60
12726;DHT22;6427;49.754;6.106;2023-04-15T14:14:31;17.70;40.80
12726;DHT22;6427;49.754;6.106;2023-04-15T14:16:59;17.80;41.00
12726;DHT22;6427;49.754;6.106;2023-04-15T14:19:29;17.80;41.70
12726;DHT22;6427;49.754;6.106;2023-04-15T14:21:56;17.70;42.00
12726;DHT22;6427;49.754;6.106;2023-04-15T14:24:24;17.60;41.20
12726;DHT22;6427;49.754;6.106;2023-04-15T14:26:52;17.60;41.40
12726;DHT22;6427;49.754;6.106;2023-04-15T14:29:20;17.50;40.20
12726;DHT22;6427;49.754;6.106;2023-04-15T14:31:51;17.40;39.80
12726;DHT22;6427;49.754;6.106;2023-04-15T14:34:23;17.30;39.80
12726;DHT22;6427;49.754;6.106;2023-04-15T14:37:01;17.30;40.30
12726;DHT22;6427;49.754;6.106;2023-04-15T14:39:28;17.00;42.00
12726;DHT22;6427;49.754;6.106;2023-04-15T14:41:56;17.00;42.00
12726;DHT22;6427;49.754;6.106;2023-04-15T14:44:31;16.90;42.80
12726;DHT22;6427;49.754;6.106;2023-04-15T14:47:07;16.80;42.30
12726;DHT22;6427;49.754;6.106;2023-04-15T14:49:41;16.80;44.30
12726;DHT22;6427;49.754;6.106;2023-04-15T14:52:13;16.80;44.30
12726;DHT22;6427;49.754;6.106;2023-04-15T14:54:42;17.10;45.00
12726;DHT22;6427;49.754;6.106;2023-04-15T14:57:12;17.20;45.80
12726;DHT22;6427;49.754;6.106;2023-04-15T14:59:40;17.20;46.10
12726;DHT22;6427;49.754;6.106;2023-04-15T15:02:08;17.20;46.10
12726;DHT22;6427;49.754;6.106;2023-04-15T15:04:36;17.20;46.50
12726;DHT22;6427;49.754;6.106;2023-04-15T15:07:04;17.30;47.00
12726;DHT22;6427;49.754;6.106;2023-04-15T15:09:35;17.40;46.10
12726;DHT22;6427;49.754;6.106;2023-04-15T15:12:07;17.50;46.70
12726;DHT22;6427;49.754;6.106;2023-04-15T15:14:38;17.40;46.60
12726;DHT22;6427;49.754;6.106;2023-04-15T15:17:06;17.40;47.10
12726;DHT22;6427;49.754;6.106;2023-04-15T15:19:35;17.40;47.30
12726;DHT22;6427;49.754;6.106;2023-04-15T15:22:06;17.30;47.10
12726;DHT22;6427;49.754;6.106;2023-04-15T15:24:37;17.20;48.70
12726;DHT22;6427;49.754;6.106;2023-04-15T15:27:10;17.20;48.70
12726;DHT22;6427;49.754;6.106;2023-04-15T15:29:41;17.10;48.60
12726;DHT22;6427;49.754;6.106;2023-04-15T15:32:09;17.00;48.70
12726;DHT22;6427;49.754;6.106;2023-04-15T15:34:44;17.00;48.70
12726;DHT22;6427;49.754;6.106;2023-04-15T15:37:14;16.90;48.90
12726;DHT22;6427;49.754;6.106;2023-04-15T15:39:46;17.00;49.10
12726;DHT22;6427;49.754;6.106;2023-04-15T15:42:13;17.00;49.10
12726;DHT22;6427;49.754;6.106;2023-04-15T15:44:53;17.00;49.70
12726;DHT22;6427;49.754;6.106;2023-04-15T15:47:16;16.90;50.30
12726;DHT22;6427;49.754;6.106;2023-04-15T15:49:44;16.90;50.20
12726;DHT22;6427;49.754;6.106;2023-04-15T15:52:12;16.90;49.90
12726;DHT22;6427;49.754;6.106;2023-04-15T15:54:43;17.10;49.80
12726;DHT22;6427;49.754;6.106;2023-04-15T15:57:11;17.20;50.00
12726;DHT22;6427;49.754;6.106;2023-04-15T15:59:42;17.40;49.50
12726;DHT22;6427;49.754;6.106;2023-04-15T16:02:15;17.40;49.50
12726;DHT22;6427;49.754;6.106;2023-04-15T16:04:41;17.50;49.00
12726;DHT22;6427;49.754;6.106;2023-04-15T16:07:09;17.60;48.80
12726;DHT22;6427;49.754;6.106;2023-04-15T16:09:37;17.70;48.70
12726;DHT22;6427;49.754;6.106;2023-04-15T16:12:05;17.70;48.20
12726;DHT22;6427;49.754;6.106;2023-04-15T16:14:35;17.70;48.70